createdAt,value
2024-03-14T00:01:09.908Z,11.18
2024-03-14T00:03:38.310Z,11.24
2024-03-14T00:06:05.110Z,11.31
2024-03-14T00:08:31.685Z,11.30
2024-03-14T00:10:58.192Z,11.26
2024-03-14T00:13:25.859Z,11.23
2024-03-14T00:15:52.406Z,11.29
2024-03-14T00:18:19.923Z,11.30
2024-03-14T00:20:46.526Z,11.33
2024-03-14T00:23:13.257Z,11.04
2024-03-14T00:25:41.816Z,10.70
2024-03-14T00:28:11.180Z,10.39
2024-03-14T00:30:37.773Z,10.24
2024-03-14T00:33:05.578Z,9.48
2024-03-14T00:35:32.275Z,9.76
2024-03-14T00:37:59.517Z,9.66
2024-03-14T00:40:26.708Z,9.89
2024-03-14T00:42:53.658Z,9.92
2024-03-14T00:45:20.488Z,10.14
2024-03-14T00:47:47.430Z,9.97
2024-03-14T00:50:14.357Z,10.13
2024-03-14T00:52:41.278Z,10.39
2024-03-14T00:55:10.205Z,10.58
2024-03-14T00:57:38.093Z,10.72
2024-03-14T01:00:14.839Z,10.68
2024-03-14T01:02:42.646Z,10.72
2024-03-14T01:05:10.094Z,10.94
2024-03-14T01:07:36.658Z,10.94
2024-03-14T01:10:06.017Z,10.94
2024-03-14T01:12:32.887Z,11.05
2024-03-14T01:14:59.656Z,10.35
2024-03-14T01:17:26.134Z,10.21
2024-03-14T01:20:12.849Z,9.46
2024-03-14T01:22:39.342Z,9.62
2024-03-14T01:25:07.028Z,9.56
2024-03-14T01:27:33.755Z,9.59
2024-03-14T01:30:00.616Z,9.49
2024-03-14T01:32:27.248Z,9.58
2024-03-14T01:34:54.012Z,9.64
2024-03-14T01:37:23.139Z,9.95
2024-03-14T01:39:51.478Z,9.98
2024-03-14T01:42:18.265Z,9.70
2024-03-14T01:44:54.133Z,9.25
2024-03-14T01:47:22.859Z,9.60
2024-03-14T01:49:51.638Z,9.56
2024-03-14T01:52:21.232Z,9.49
2024-03-14T01:54:50.925Z,9.56
2024-03-14T01:57:18.617Z,9.74
2024-03-14T01:59:50.996Z,9.70
2024-03-14T02:02:18.915Z,9.49
2024-03-14T02:04:48.779Z,9.28
2024-03-14T02:07:18.977Z,9.22
2024-03-14T02:09:48.511Z,9.44
2024-03-14T02:12:15.210Z,9.26
2024-03-14T02:14:42.180Z,9.29
2024-03-14T02:17:08.940Z,8.40
2024-03-14T02:19:35.422Z,8.46
2024-03-14T02:22:02.474Z,7.77
2024-03-14T02:24:29.236Z,8.33
2024-03-14T02:27:00.610Z,8.48
2024-03-14T02:29:27.610Z,7.96
2024-03-14T02:31:54.056Z,7.44
2024-03-14T02:34:20.757Z,7.19
2024-03-14T02:36:47.532Z,7.48
2024-03-14T02:39:17.273Z,7.53
2024-03-14T02:41:43.802Z,7.76
2024-03-14T02:44:17.878Z,7.96
2024-03-14T02:46:54.549Z,7.83
2024-03-14T02:49:21.972Z,7.97
2024-03-14T02:51:48.639Z,7.99
2024-03-14T02:54:16.710Z,8.05
2024-03-14T02:56:51.596Z,8.13
2024-03-14T02:59:18.668Z,8.26
2024-03-14T03:01:45.292Z,8.05
2024-03-14T03:04:12.424Z,8.16
2024-03-14T03:06:59.265Z,8.28
2024-03-14T03:09:28.812Z,8.28
2024-03-14T03:11:55.501Z,8.26
2024-03-14T03:14:22.804Z,8.27
2024-03-14T03:16:49.337Z,8.12
2024-03-14T03:19:16.125Z,8.21
2024-03-14T03:21:42.652Z,8.15
2024-03-14T03:24:09.506Z,8.08
2024-03-14T03:26:36.589Z,7.99
2024-03-14T03:29:03.221Z,7.98
2024-03-14T03:31:30.379Z,7.97
2024-03-14T03:33:57.843Z,7.68
2024-03-14T03:36:24.676Z,7.63
2024-03-14T03:38:51.384Z,7.65
2024-03-14T03:41:17.964Z,7.55
2024-03-14T03:43:47.346Z,6.96
2024-03-14T03:46:13.829Z,6.26
2024-03-14T03:48:40.459Z,6.48
2024-03-14T03:51:07.099Z,6.47
2024-03-14T03:53:33.741Z,6.49
2024-03-14T03:56:06.597Z,6.47
2024-03-14T03:58:34.240Z,6.80
2024-03-14T04:01:08.376Z,5.84
2024-03-14T04:03:37.687Z,6.40
2024-03-14T04:06:04.425Z,6.18
2024-03-14T04:08:31.924Z,6.19
2024-03-14T04:10:58.465Z,5.75
2024-03-14T04:13:25.052Z,5.96
2024-03-14T04:15:51.641Z,6.09
2024-03-14T04:18:18.237Z,6.52
2024-03-14T04:20:44.953Z,6.41
2024-03-14T04:23:11.666Z,6.22
2024-03-14T04:25:38.599Z,6.29
2024-03-14T04:28:08.595Z,6.61
2024-03-14T04:30:35.203Z,6.34
2024-03-14T04:33:01.898Z,6.55
2024-03-14T04:35:28.502Z,6.16
2024-03-14T04:37:55.115Z,6.36
2024-03-14T04:40:22.608Z,6.45
2024-03-14T04:42:55.727Z,6.65
2024-03-14T04:45:23.241Z,6.33
2024-03-14T04:47:50.220Z,6.42
2024-03-14T04:50:20.199Z,6.49
2024-03-14T04:52:47.087Z,6.36
2024-03-14T04:55:14.040Z,6.38
2024-03-14T04:57:44.981Z,6.93
2024-03-14T05:00:21.296Z,7.08
2024-03-14T05:02:52.594Z,6.98
2024-03-14T05:05:22.085Z,6.98
2024-03-14T05:07:49.615Z,7.17
2024-03-14T05:10:20.081Z,7.03
2024-03-14T05:12:47.424Z,6.66
2024-03-14T05:15:15.496Z,7.01
2024-03-14T05:17:43.407Z,6.95
2024-03-14T05:20:11.931Z,6.93
2024-03-14T05:22:39.589Z,7.14
2024-03-14T05:25:07.950Z,7.28
2024-03-14T05:30:05.140Z,6.62
2024-03-14T05:32:33.382Z,6.85
2024-03-14T05:35:01.669Z,7.10
2024-03-14T05:37:28.892Z,7.35
2024-03-14T05:39:56.242Z,7.32
2024-03-14T05:42:23.348Z,7.41
2024-03-14T05:44:50.607Z,7.43
2024-03-14T05:47:17.253Z,7.62
2024-03-14T05:49:43.873Z,7.56
2024-03-14T05:52:11.508Z,7.07
2024-03-14T05:54:38.562Z,7.40
2024-03-14T05:57:05.269Z,7.48
2024-03-14T05:59:32.109Z,7.62
2024-03-14T06:01:59.077Z,7.56
2024-03-14T06:04:25.622Z,7.90
2024-03-14T06:06:52.089Z,8.16
2024-03-14T06:09:19.019Z,8.18
2024-03-14T06:11:45.720Z,8.18
2024-03-14T06:14:12.272Z,8.33
2024-03-14T06:16:38.786Z,8.59
2024-03-14T06:19:07.610Z,8.74
2024-03-14T06:21:41.404Z,8.96
2024-03-14T06:24:07.960Z,9.12
2024-03-14T06:26:38.192Z,9.26
2024-03-14T06:29:04.665Z,9.23
2024-03-14T06:31:31.117Z,9.40
2024-03-14T06:33:57.690Z,9.32
2024-03-14T06:36:25.257Z,9.69
2024-03-14T06:38:52.503Z,9.78
2024-03-14T06:41:20.345Z,9.90
2024-03-14T06:43:47.010Z,10.16
2024-03-14T06:46:16.713Z,9.96
2024-03-14T06:48:43.512Z,10.27
2024-03-14T06:51:11.698Z,9.67
2024-03-14T06:53:39.675Z,10.07
2024-03-14T06:56:10.033Z,10.04
2024-03-14T06:58:36.780Z,9.79
2024-03-14T07:01:03.355Z,9.96
2024-03-14T07:03:29.926Z,10.44
2024-03-14T07:05:59.165Z,10.20
2024-03-14T07:08:27.804Z,10.89
2024-03-14T07:10:54.646Z,10.54
2024-03-14T07:13:21.240Z,10.91
2024-03-14T07:15:49.124Z,11.35
2024-03-14T07:18:17.752Z,10.70
2024-03-14T07:20:47.064Z,11.39
2024-03-14T07:23:14.713Z,11.06
2024-03-14T07:25:42.453Z,11.45
2024-03-14T07:28:10.634Z,11.60
2024-03-14T07:30:37.243Z,11.29
2024-03-14T07:33:03.964Z,10.35
2024-03-14T07:35:30.476Z,10.71
2024-03-14T07:37:57.312Z,10.72
2024-03-14T07:40:33.959Z,11.52
2024-03-14T07:43:00.886Z,12.05
2024-03-14T07:45:27.835Z,11.65
2024-03-14T07:48:19.185Z,11.32
2024-03-14T07:50:52.264Z,11.85
2024-03-14T07:53:20.446Z,11.73
2024-03-14T07:55:47.204Z,11.54
2024-03-14T07:58:13.680Z,12.53
2024-03-14T08:00:40.202Z,12.64
2024-03-14T08:03:06.700Z,12.41
2024-03-14T08:05:35.416Z,12.48
2024-03-14T08:08:13.904Z,11.92
2024-03-14T08:10:48.009Z,12.79
2024-03-14T08:13:21.520Z,13.27
2024-03-14T08:15:54.391Z,13.19
2024-03-14T08:18:22.855Z,12.73
2024-03-14T08:20:49.594Z,12.97
2024-03-14T08:23:16.836Z,12.69
2024-03-14T08:25:43.762Z,13.12
2024-03-14T08:28:10.268Z,13.71
2024-03-14T08:30:38.820Z,13.75
2024-03-14T08:33:05.999Z,13.80
2024-03-14T08:35:34.536Z,14.13
2024-03-14T08:38:01.254Z,14.75
2024-03-14T08:40:28.118Z,13.74
2024-03-14T08:42:54.630Z,13.56
2024-03-14T08:45:21.538Z,14.54
2024-03-14T08:47:48.727Z,14.63
2024-03-14T08:50:16.773Z,14.56
2024-03-14T08:52:43.848Z,14.42
2024-03-14T08:55:26.657Z,14.35
2024-03-14T08:57:53.581Z,13.82
2024-03-14T09:00:23.322Z,14.46
2024-03-14T09:02:50.918Z,14.26
2024-03-14T09:05:17.935Z,14.44
2024-03-14T09:07:47.077Z,13.21
2024-03-14T09:10:29.526Z,12.78
2024-03-14T09:12:56.760Z,13.38
2024-03-14T09:15:25.566Z,13.42
2024-03-14T09:17:52.950Z,14.01
2024-03-14T09:20:22.624Z,14.14
2024-03-14T09:22:56.778Z,13.40
2024-03-14T09:25:25.155Z,14.11
2024-03-14T09:27:54.617Z,14.29
2024-03-14T09:30:23.455Z,14.00
2024-03-14T09:32:51.778Z,14.13
2024-03-14T09:35:26.814Z,13.92
2024-03-14T09:37:57.309Z,13.95
2024-03-14T09:40:40.011Z,14.16
2024-03-14T09:43:15.112Z,14.14
2024-03-14T09:45:43.670Z,14.52
2024-03-14T09:48:13.219Z,14.25
2024-03-14T09:50:40.010Z,13.04
2024-03-14T09:53:08.455Z,13.95
2024-03-14T09:55:37.041Z,14.52
2024-03-14T09:58:06.144Z,14.41
2024-03-14T10:00:32.990Z,14.81
2024-03-14T10:03:02.221Z,14.90
2024-03-14T10:05:29.734Z,15.16
2024-03-14T10:07:56.397Z,15.32
2024-03-14T10:10:24.442Z,14.83
2024-03-14T10:12:58.564Z,12.51
2024-03-14T10:15:26.835Z,12.99
2024-03-14T10:17:53.916Z,13.69
2024-03-14T10:20:21.729Z,14.67
2024-03-14T10:22:50.279Z,14.96
2024-03-14T10:25:18.634Z,14.67
2024-03-14T10:28:00.411Z,15.13
2024-03-14T10:30:35.215Z,15.17
2024-03-14T10:33:04.851Z,15.30
2024-03-14T10:35:33.898Z,15.58
2024-03-14T10:38:01.930Z,15.73
2024-03-14T10:40:31.819Z,15.92
2024-03-14T10:42:58.564Z,15.46
2024-03-14T10:45:28.530Z,15.67
2024-03-14T10:47:56.737Z,15.96
2024-03-14T10:50:23.852Z,16.15
2024-03-14T10:52:56.364Z,16.62
2024-03-14T10:55:46.703Z,16.28
2024-03-14T10:58:17.261Z,16.05
2024-03-14T11:00:45.475Z,15.83
2024-03-14T11:03:18.955Z,16.33
2024-03-14T11:05:52.990Z,15.09
2024-03-14T11:08:24.448Z,15.60
2024-03-14T11:10:56.481Z,16.34
2024-03-14T11:13:31.825Z,16.11
2024-03-14T11:16:00.402Z,16.01
2024-03-14T11:18:38.621Z,15.62
2024-03-14T11:21:07.541Z,16.16
2024-03-14T11:23:37.845Z,16.18
2024-03-14T11:26:13.796Z,16.16
2024-03-14T11:28:42.827Z,15.46
2024-03-14T11:31:09.383Z,15.57
2024-03-14T11:33:36.345Z,15.92
2024-03-14T11:36:05.656Z,14.94
2024-03-14T11:38:34.080Z,15.04
2024-03-14T11:41:04.680Z,14.68
2024-03-14T11:43:35.022Z,14.70
2024-03-14T11:46:24.641Z,13.77
2024-03-14T11:48:51.157Z,14.97
2024-03-14T11:51:20.179Z,14.86
2024-03-14T11:53:47.663Z,15.17
2024-03-14T11:56:15.265Z,15.21
2024-03-14T11:58:45.421Z,14.98
2024-03-14T12:01:21.603Z,15.71
2024-03-14T12:03:53.002Z,16.00
2024-03-14T12:06:19.869Z,15.89
2024-03-14T12:08:48.886Z,15.22
2024-03-14T12:11:15.839Z,14.94
2024-03-14T12:13:53.442Z,15.14
2024-03-14T12:16:20.659Z,15.03
2024-03-14T12:18:53.645Z,15.07
2024-03-14T12:21:20.754Z,15.48
2024-03-14T12:23:52.020Z,15.65
2024-03-14T12:26:19.466Z,15.40
2024-03-14T12:28:49.352Z,14.82
2024-03-14T12:31:18.770Z,15.21
2024-03-14T12:33:48.369Z,15.08
2024-03-14T12:36:18.873Z,15.03
2024-03-14T12:38:52.767Z,15.33
2024-03-14T12:41:19.986Z,15.38
2024-03-14T12:43:48.584Z,15.42
2024-03-14T12:46:18.834Z,15.35
2024-03-14T12:48:46.981Z,15.36
2024-03-14T12:51:18.305Z,15.40
2024-03-14T12:53:57.470Z,15.73
2024-03-14T12:56:25.729Z,15.29
2024-03-14T12:58:53.807Z,15.47
2024-03-14T13:01:20.525Z,15.75
2024-03-14T13:03:47.526Z,15.21
2024-03-14T13:06:24.927Z,15.81
2024-03-14T13:09:26.397Z,15.98
2024-03-14T13:12:23.466Z,15.58
2024-03-14T13:15:12.232Z,16.10
2024-03-14T13:17:39.782Z,15.80
2024-03-14T13:20:19.501Z,16.19
2024-03-14T13:22:49.286Z,16.76
2024-03-14T13:25:15.808Z,16.65
2024-03-14T13:27:42.381Z,16.15
2024-03-14T13:30:09.768Z,16.42
2024-03-14T13:32:38.510Z,16.66
2024-03-14T13:35:11.170Z,16.31
2024-03-14T13:37:37.830Z,17.24
2024-03-14T13:42:42.982Z,16.69
2024-03-14T13:45:09.674Z,17.08
2024-03-14T13:47:39.134Z,16.79
2024-03-14T13:50:10.833Z,16.09
2024-03-14T13:52:42.479Z,15.71
2024-03-14T13:55:26.288Z,16.09
2024-03-14T13:57:56.199Z,15.99
2024-03-14T14:00:30.781Z,16.09
2024-03-14T14:03:00.249Z,16.14
2024-03-14T14:05:26.798Z,16.65
2024-03-14T14:07:56.676Z,16.60
2024-03-14T14:10:24.146Z,16.35
2024-03-14T14:12:52.016Z,16.56
2024-03-14T14:15:19.429Z,16.13
2024-03-14T14:17:46.328Z,16.44
2024-03-14T14:20:18.402Z,16.47
2024-03-14T14:22:46.415Z,15.78
2024-03-14T14:25:15.965Z,16.44
2024-03-14T14:27:46.166Z,15.84
2024-03-14T14:30:22.703Z,16.28
2024-03-14T14:32:50.604Z,15.73
2024-03-14T14:35:17.545Z,15.47
2024-03-14T14:37:50.517Z,15.30
2024-03-14T14:40:17.551Z,15.64
2024-03-14T14:42:44.422Z,15.32
2024-03-14T14:45:11.766Z,15.13
2024-03-14T14:47:43.087Z,15.15
2024-03-14T14:50:11.232Z,15.41
2024-03-14T14:52:39.010Z,15.19
2024-03-14T14:55:12.975Z,15.24
2024-03-14T14:57:45.112Z,15.38
2024-03-14T15:00:15.389Z,15.13
2024-03-14T15:02:48.640Z,15.10
2024-03-14T15:05:15.524Z,15.02
2024-03-14T15:07:42.664Z,15.43
2024-03-14T15:10:11.780Z,15.17
2024-03-14T15:12:46.767Z,15.05
2024-03-14T15:15:23.900Z,15.02
2024-03-14T15:17:51.355Z,14.90
2024-03-14T15:20:22.189Z,15.40
2024-03-14T15:22:50.153Z,15.39
2024-03-14T15:25:18.092Z,14.72
2024-03-14T15:27:46.179Z,14.67
2024-03-14T15:30:13.713Z,15.26
2024-03-14T15:32:43.533Z,14.92
2024-03-14T15:35:12.518Z,15.22
2024-03-14T15:37:40.121Z,15.36
2024-03-14T15:40:16.795Z,15.64
2024-03-14T15:42:44.804Z,15.65
2024-03-14T15:45:18.312Z,15.04
2024-03-14T15:47:49.697Z,15.56
2024-03-14T15:50:17.821Z,14.84
2024-03-14T15:52:45.755Z,15.14
2024-03-14T15:55:14.198Z,14.57
2024-03-14T15:57:40.896Z,14.39
2024-03-14T16:00:09.672Z,14.19
2024-03-14T16:02:40.042Z,13.99
2024-03-14T16:05:11.465Z,13.95
2024-03-14T16:07:38.133Z,14.50
2024-03-14T16:10:16.856Z,14.73
2024-03-14T16:12:44.316Z,13.93
2024-03-14T16:15:13.700Z,14.65
2024-03-14T16:17:41.034Z,14.84
2024-03-14T16:20:35.074Z,14.54
2024-03-14T16:23:04.630Z,14.43
2024-03-14T16:25:36.163Z,13.98
2024-03-14T16:28:04.568Z,14.47
2024-03-14T16:30:32.148Z,14.71
2024-03-14T16:32:58.955Z,13.99
2024-03-14T16:35:33.870Z,14.51
2024-03-14T16:38:02.964Z,14.30
2024-03-14T16:40:31.084Z,13.88
2024-03-14T16:42:59.762Z,13.58
2024-03-14T16:45:36.052Z,14.10
2024-03-14T16:48:03.842Z,14.12
2024-03-14T16:50:31.872Z,14.12
2024-03-14T16:52:59.174Z,14.02
2024-03-14T16:55:27.478Z,14.13
2024-03-14T16:57:55.270Z,14.08
2024-03-14T17:00:31.835Z,13.94
2024-03-14T17:02:59.658Z,13.62
2024-03-14T17:05:26.452Z,13.21
2024-03-14T17:07:57.164Z,13.20
2024-03-14T17:10:24.788Z,12.90
2024-03-14T17:12:52.490Z,12.94
2024-03-14T17:15:19.715Z,13.17
2024-03-14T17:17:46.788Z,12.98
2024-03-14T17:20:13.995Z,13.14
2024-03-14T17:22:41.125Z,12.76
2024-03-14T17:25:08.504Z,12.79
2024-03-14T17:27:36.035Z,12.61
2024-03-14T17:30:07.311Z,12.31
2024-03-14T17:32:34.732Z,12.41
2024-03-14T17:35:02.306Z,12.43
2024-03-14T17:37:28.815Z,12.36
2024-03-14T17:39:55.641Z,11.96
2024-03-14T17:42:22.149Z,12.03
2024-03-14T17:44:48.659Z,11.16
2024-03-14T17:47:15.122Z,11.80
2024-03-14T17:49:41.714Z,11.59
2024-03-14T17:52:09.500Z,11.84
2024-03-14T17:54:36.144Z,11.53
2024-03-14T17:57:04.054Z,11.77
2024-03-14T17:59:30.627Z,11.23
2024-03-14T18:01:57.642Z,11.18
2024-03-14T18:04:24.202Z,11.69
2024-03-14T18:06:50.765Z,11.68
2024-03-14T18:09:19.005Z,11.55
2024-03-14T18:11:46.490Z,11.26
2024-03-14T18:14:14.625Z,11.07
2024-03-14T18:16:42.483Z,11.36
2024-03-14T18:19:10.314Z,11.31
2024-03-14T18:21:40.207Z,11.27
2024-03-14T18:24:08.333Z,11.22
2024-03-14T18:26:38.329Z,11.21
2024-03-14T18:29:07.320Z,11.22
2024-03-14T18:31:47.866Z,11.07
2024-03-14T18:34:33.511Z,11.15
2024-03-14T18:37:00.482Z,10.96
2024-03-14T18:39:33.234Z,10.97
2024-03-14T18:42:05.959Z,10.41
2024-03-14T18:44:34.012Z,10.74
2024-03-14T18:47:00.696Z,11.08
2024-03-14T18:49:27.321Z,11.12
2024-03-14T18:51:54.999Z,11.10
2024-03-14T18:54:22.104Z,11.14
2024-03-14T18:56:50.996Z,11.10
2024-03-14T18:59:18.836Z,11.27
2024-03-14T19:01:45.433Z,10.95
2024-03-14T19:04:13.543Z,11.30
2024-03-14T19:06:40.094Z,11.46
2024-03-14T19:09:07.224Z,11.18
2024-03-14T19:11:34.084Z,11.26
2024-03-14T19:14:01.382Z,11.11
2024-03-14T19:16:28.026Z,10.57
2024-03-14T19:18:56.270Z,10.39
2024-03-14T19:21:22.955Z,10.83
2024-03-14T19:23:49.646Z,10.64
2024-03-14T19:26:18.171Z,10.19
2024-03-14T19:28:44.670Z,9.85
2024-03-14T19:31:11.907Z,10.07
2024-03-14T19:33:38.620Z,10.02
2024-03-14T19:36:05.383Z,10.64
2024-03-14T19:38:33.251Z,10.30
2024-03-14T19:40:59.750Z,9.76
2024-03-14T19:43:26.264Z,9.54
2024-03-14T19:45:52.898Z,10.02
2024-03-14T19:48:20.447Z,9.42
2024-03-14T19:50:47.805Z,9.75
2024-03-14T19:53:15.097Z,9.68
2024-03-14T19:55:41.651Z,9.55
2024-03-14T19:58:08.580Z,9.32
2024-03-14T20:00:35.218Z,10.20
2024-03-14T20:03:03.298Z,9.94
2024-03-14T20:05:32.957Z,9.56
2024-03-14T20:08:00.027Z,9.83
2024-03-14T20:10:27.631Z,9.86
2024-03-14T20:12:55.188Z,10.02
2024-03-14T20:15:25.751Z,9.93
2024-03-14T20:17:52.539Z,10.28
2024-03-14T20:20:19.324Z,10.45
2024-03-14T20:22:45.770Z,10.19
2024-03-14T20:25:13.507Z,10.10
2024-03-14T20:27:40.508Z,10.59
2024-03-14T20:30:13.686Z,10.57
2024-03-14T20:32:43.168Z,10.79
2024-03-14T20:35:10.145Z,11.00
2024-03-14T20:37:37.795Z,11.15
2024-03-14T20:40:05.594Z,11.15
2024-03-14T20:42:35.586Z,11.20
2024-03-14T20:45:02.299Z,11.11
2024-03-14T20:47:31.984Z,11.23
2024-03-14T20:49:58.618Z,11.21
2024-03-14T20:52:26.774Z,11.37
2024-03-14T20:55:21.312Z,11.27
2024-03-14T20:57:56.839Z,11.37
2024-03-14T21:00:42.488Z,11.29
2024-03-14T21:03:10.025Z,11.41
2024-03-14T21:05:37.550Z,11.46
2024-03-14T21:08:11.205Z,11.44
2024-03-14T21:10:39.061Z,11.50
2024-03-14T21:13:06.279Z,11.58
2024-03-14T21:15:33.055Z,11.60
2024-03-14T21:17:59.767Z,11.51
2024-03-14T21:20:28.307Z,11.44
2024-03-14T21:22:57.069Z,11.01
2024-03-14T21:25:25.669Z,11.22
2024-03-14T21:27:52.433Z,11.47
2024-03-14T21:30:20.307Z,11.57
2024-03-14T21:32:46.963Z,11.57
2024-03-14T21:35:13.822Z,11.66
2024-03-14T21:37:41.292Z,11.63
2024-03-14T21:40:09.268Z,11.58
2024-03-14T21:42:37.564Z,11.64
2024-03-14T21:45:07.704Z,11.62
2024-03-14T21:47:37.981Z,11.63
2024-03-14T21:50:05.218Z,11.63
2024-03-14T21:52:34.437Z,11.24
2024-03-14T21:55:01.775Z,11.41
2024-03-14T21:57:28.363Z,11.11
2024-03-14T21:59:54.908Z,11.39
2024-03-14T22:02:21.925Z,11.33
2024-03-14T22:04:48.453Z,11.18
2024-03-14T22:07:14.974Z,11.44
2024-03-14T22:09:42.127Z,11.13
2024-03-14T22:12:08.741Z,11.06
2024-03-14T22:14:35.275Z,10.87
2024-03-14T22:17:02.017Z,10.97
2024-03-14T22:19:28.635Z,10.52
2024-03-14T22:21:55.561Z,9.97
2024-03-14T22:24:23.342Z,9.89
2024-03-14T22:26:49.867Z,9.99
2024-03-14T22:29:16.793Z,10.13
2024-03-14T22:31:43.560Z,10.36
2024-03-14T22:34:10.151Z,10.31
2024-03-14T22:36:40.122Z,10.18
2024-03-14T22:39:11.085Z,10.33
2024-03-14T22:41:40.751Z,9.86
2024-03-14T22:44:07.319Z,9.70
2024-03-14T22:46:34.220Z,10.00
2024-03-14T22:49:03.630Z,9.55
2024-03-14T22:51:30.191Z,9.39
2024-03-14T22:53:58.177Z,9.26
2024-03-14T22:56:24.671Z,9.74
2024-03-14T22:58:51.407Z,9.69
2024-03-14T23:01:17.973Z,9.10
2024-03-14T23:03:46.068Z,9.19
2024-03-14T23:06:14.910Z,8.81
2024-03-14T23:08:41.419Z,8.61
2024-03-14T23:11:07.975Z,9.13
2024-03-14T23:13:34.581Z,9.57
2024-03-14T23:16:01.530Z,9.73
2024-03-14T23:18:28.255Z,9.45
2024-03-14T23:20:59.565Z,9.86
2024-03-14T23:23:29.308Z,9.15
2024-03-14T23:25:57.265Z,8.99
2024-03-14T23:28:25.952Z,8.69
2024-03-14T23:30:52.646Z,8.94
2024-03-14T23:33:19.337Z,9.35
2024-03-14T23:35:47.661Z,9.51
2024-03-14T23:38:14.338Z,9.26
2024-03-14T23:40:41.178Z,9.60
2024-03-14T23:43:07.791Z,8.63
2024-03-14T23:45:35.620Z,9.18
2024-03-14T23:48:02.987Z,9.04
2024-03-14T23:50:30.252Z,9.26
2024-03-14T23:52:56.968Z,9.06
2024-03-14T23:55:23.831Z,8.83
2024-03-14T23:57:50.625Z,9.07
